createdAt,value
2023-04-25T00:01:49.414Z,9.19
2023-04-25T00:04:19.478Z,9.19
2023-04-25T00:06:48.142Z,9.22
2023-04-25T00:09:16.759Z,9.24
2023-04-25T00:11:45.428Z,9.25
2023-04-25T00:14:13.898Z,9.27
2023-04-25T00:16:45.066Z,9.26
2023-04-25T00:19:14.578Z,9.25
2023-04-25T00:21:47.356Z,9.24
2023-04-25T00:24:16.401Z,9.24
2023-04-25T00:26:44.814Z,9.24
2023-04-25T00:29:13.508Z,9.26
2023-04-25T00:31:42.190Z,9.26
2023-04-25T00:34:10.722Z,9.21
2023-04-25T00:36:39.226Z,9.20
2023-04-25T00:39:09.276Z,9.17
2023-04-25T00:41:38.176Z,9.16
2023-04-25T00:44:09.069Z,9.17
2023-04-25T00:46:39.108Z,9.18
2023-04-25T00:49:07.625Z,9.15
2023-04-25T00:51:36.507Z,9.12
2023-04-25T00:54:05.278Z,9.14
2023-04-25T00:56:35.356Z,9.14
2023-04-25T00:59:03.931Z,9.16
2023-04-25T01:01:33.361Z,9.20
2023-04-25T01:04:03.833Z,9.20
2023-04-25T01:06:33.892Z,9.19
2023-04-25T01:09:03.911Z,9.18
2023-04-25T01:11:32.354Z,9.17
2023-04-25T01:14:02.999Z,9.14
2023-04-25T01:16:32.366Z,9.14
2023-04-25T01:19:01.836Z,9.11
2023-04-25T01:21:31.837Z,9.13
2023-04-25T01:24:00.835Z,9.13
2023-04-25T01:26:29.655Z,9.14
2023-04-25T01:29:00.177Z,9.13
2023-04-25T01:31:30.669Z,9.13
2023-04-25T01:33:59.542Z,9.13
2023-04-25T01:36:28.125Z,9.10
2023-04-25T01:38:59.042Z,9.12
2023-04-25T01:41:27.822Z,9.15
2023-04-25T01:43:56.878Z,9.14
2023-04-25T01:46:25.501Z,9.14
2023-04-25T01:48:54.192Z,9.13
2023-04-25T01:51:24.237Z,9.12
2023-04-25T01:53:54.999Z,9.12
2023-04-25T01:56:26.538Z,9.13
2023-04-25T01:58:56.792Z,9.15
2023-04-25T02:01:26.373Z,9.15
2023-04-25T02:03:56.299Z,9.07
2023-04-25T02:06:26.961Z,9.03
2023-04-25T02:08:56.869Z,9.01
2023-04-25T02:11:27.690Z,8.98
2023-04-25T02:13:57.137Z,8.93
2023-04-25T02:16:27.508Z,8.89
2023-04-25T02:18:56.932Z,8.89
2023-04-25T02:21:27.645Z,8.87
2023-04-25T02:23:57.674Z,8.86
2023-04-25T02:26:28.933Z,8.84
2023-04-25T02:28:59.787Z,8.81
2023-04-25T02:31:30.583Z,8.78
2023-04-25T02:34:01.285Z,8.75
2023-04-25T02:36:33.913Z,8.72
2023-04-25T02:39:04.034Z,8.68
2023-04-25T02:41:35.931Z,8.69
2023-04-25T02:44:05.987Z,8.70
2023-04-25T02:46:39.514Z,8.71
2023-04-25T02:49:09.579Z,8.68
2023-04-25T02:51:39.732Z,8.68
2023-04-25T02:54:10.851Z,8.69
2023-04-25T02:56:41.293Z,8.66
2023-04-25T02:59:10.687Z,8.67
2023-04-25T03:01:39.552Z,8.69
2023-04-25T03:04:09.610Z,8.66
2023-04-25T03:06:39.720Z,8.61
2023-04-25T03:09:09.652Z,8.58
2023-04-25T03:11:41.584Z,8.62
2023-04-25T03:14:11.174Z,8.61
2023-04-25T03:16:40.884Z,8.63
2023-04-25T03:19:10.569Z,8.63
2023-04-25T03:21:40.026Z,8.63
2023-04-25T03:24:09.841Z,8.63
2023-04-25T03:26:40.669Z,8.63
2023-04-25T03:29:11.021Z,8.63
2023-04-25T03:31:41.114Z,8.63
2023-04-25T03:34:11.703Z,8.65
2023-04-25T03:36:41.842Z,8.66
2023-04-25T03:39:11.015Z,8.64
2023-04-25T03:41:42.458Z,8.64
2023-04-25T03:44:10.935Z,8.63
2023-04-25T03:46:40.291Z,8.63
2023-04-25T03:49:09.730Z,8.58
2023-04-25T03:51:39.063Z,8.59
2023-04-25T03:54:09.068Z,8.56
2023-04-25T03:56:39.559Z,8.58
2023-04-25T03:59:10.895Z,8.53
2023-04-25T04:01:40.926Z,8.54
2023-04-25T04:04:10.558Z,8.52
2023-04-25T04:06:40.595Z,8.55
2023-04-25T04:09:12.092Z,8.56
2023-04-25T04:11:41.974Z,8.58
2023-04-25T04:14:13.880Z,8.58
2023-04-25T04:16:43.016Z,8.57
2023-04-25T04:19:13.519Z,8.56
2023-04-25T04:21:43.059Z,8.54
2023-04-25T04:24:14.000Z,8.58
2023-04-25T04:26:46.610Z,8.57
2023-04-25T04:29:22.354Z,8.58
2023-04-25T04:31:51.905Z,8.58
2023-04-25T04:34:22.347Z,8.57
2023-04-25T04:36:51.758Z,8.59
2023-04-25T04:39:21.521Z,8.62
2023-04-25T04:41:51.048Z,8.62
2023-04-25T04:44:22.908Z,8.62
2023-04-25T04:46:52.991Z,8.65
2023-04-25T04:49:23.736Z,8.61
2023-04-25T04:51:53.961Z,8.62
2023-04-25T04:54:24.423Z,8.65
2023-04-25T04:56:54.972Z,8.60
2023-04-25T04:59:26.324Z,8.57
2023-04-25T05:01:56.287Z,8.55
2023-04-25T05:04:26.403Z,8.56
2023-04-25T05:06:55.922Z,8.58
2023-04-25T05:09:27.308Z,8.62
2023-04-25T05:11:56.888Z,8.63
2023-04-25T05:14:28.353Z,8.65
2023-04-25T05:16:57.905Z,8.67
2023-04-25T05:19:26.939Z,8.69
2023-04-25T05:21:56.628Z,8.68
2023-04-25T05:24:27.290Z,8.66
2023-04-25T05:26:57.312Z,8.69
2023-04-25T05:29:28.803Z,8.72
2023-04-25T05:31:58.890Z,8.69
2023-04-25T05:34:30.013Z,8.70
2023-04-25T05:36:59.998Z,8.71
2023-04-25T05:39:30.495Z,8.73
2023-04-25T05:41:59.960Z,8.73
2023-04-25T05:44:31.967Z,8.72
2023-04-25T05:47:01.206Z,8.72
2023-04-25T05:49:31.883Z,8.75
2023-04-25T05:52:02.906Z,8.77
2023-04-25T05:54:31.922Z,8.80
2023-04-25T05:57:02.045Z,8.78
2023-04-25T05:59:33.450Z,8.76
2023-04-25T06:02:03.555Z,8.75
2023-04-25T06:04:34.377Z,8.78
2023-04-25T06:07:04.141Z,8.81
2023-04-25T06:09:33.048Z,8.83
2023-04-25T06:12:03.669Z,8.85
2023-04-25T06:14:34.510Z,8.87
2023-04-25T06:17:07.576Z,8.87
2023-04-25T06:19:38.230Z,8.86
2023-04-25T06:22:08.897Z,8.87
2023-04-25T06:24:39.500Z,8.87
2023-04-25T06:27:09.982Z,8.87
2023-04-25T06:29:42.491Z,8.86
2023-04-25T06:32:11.301Z,8.82
2023-04-25T06:34:40.740Z,8.80
2023-04-25T06:37:09.756Z,8.76
2023-04-25T06:39:41.183Z,8.70
2023-04-25T06:42:12.491Z,8.65
2023-04-25T06:44:44.851Z,8.65
2023-04-25T06:47:16.608Z,8.65
2023-04-25T06:49:48.054Z,8.61
2023-04-25T06:52:19.923Z,8.56
2023-04-25T06:54:48.947Z,8.50
2023-04-25T06:57:20.061Z,8.55
2023-04-25T06:59:52.350Z,8.58
2023-04-25T07:02:23.805Z,8.59
2023-04-25T07:04:54.743Z,8.56
2023-04-25T07:07:25.433Z,8.47
2023-04-25T07:09:56.296Z,8.48
2023-04-25T07:12:25.998Z,8.48
2023-04-25T07:14:58.409Z,8.42
2023-04-25T07:17:28.777Z,8.46
2023-04-25T07:19:58.723Z,8.50
2023-04-25T07:22:29.305Z,8.48
2023-04-25T07:25:00.877Z,8.49
2023-04-25T07:27:30.306Z,8.56
2023-04-25T07:30:00.758Z,8.56
2023-04-25T07:32:30.935Z,8.66
2023-04-25T07:35:00.874Z,8.70
2023-04-25T07:37:29.510Z,8.72
2023-04-25T07:39:59.509Z,8.66
2023-04-25T07:42:29.922Z,8.74
2023-04-25T07:45:00.589Z,8.86
2023-04-25T07:47:30.137Z,8.90
2023-04-25T07:50:00.602Z,8.93
2023-04-25T07:52:29.559Z,8.92
2023-04-25T07:55:00.420Z,8.85
2023-04-25T07:57:30.246Z,8.89
2023-04-25T08:00:01.607Z,8.93
2023-04-25T08:02:31.174Z,8.94
2023-04-25T08:05:01.526Z,8.89
2023-04-25T08:07:32.224Z,8.93
2023-04-25T08:10:02.271Z,8.82
2023-04-25T08:12:31.696Z,8.83
2023-04-25T08:15:03.034Z,8.81
2023-04-25T08:17:33.085Z,8.84
2023-04-25T08:20:02.651Z,8.79
2023-04-25T08:22:32.874Z,8.76
2023-04-25T08:25:02.872Z,8.79
2023-04-25T08:27:33.282Z,8.76
2023-04-25T08:30:05.736Z,8.75
2023-04-25T08:32:39.546Z,8.65
2023-04-25T08:35:10.578Z,8.53
2023-04-25T08:37:40.389Z,8.53
2023-04-25T08:40:18.483Z,8.53
2023-04-25T08:42:51.757Z,8.52
2023-04-25T08:45:26.650Z,8.53
2023-04-25T08:47:57.972Z,8.44
2023-04-25T08:50:28.032Z,8.52
2023-04-25T08:53:03.380Z,8.49
2023-04-25T08:55:35.494Z,8.48
2023-04-25T08:58:07.119Z,8.63
2023-04-25T09:00:38.229Z,8.75
2023-04-25T09:03:08.257Z,8.73
2023-04-25T09:05:40.129Z,8.84
2023-04-25T09:08:11.246Z,8.93
2023-04-25T09:10:41.182Z,8.90
2023-04-25T09:13:13.576Z,8.96
2023-04-25T09:15:56.117Z,8.97
2023-04-25T09:18:30.619Z,9.05
2023-04-25T09:21:13.774Z,9.13
2023-04-25T09:23:49.448Z,9.21
2023-04-25T09:26:21.744Z,9.26
2023-04-25T09:28:50.846Z,9.36
2023-04-25T09:31:26.561Z,9.26
2023-04-25T09:34:03.237Z,9.31
2023-04-25T09:36:37.238Z,9.42
2023-04-25T09:39:17.406Z,9.50
2023-04-25T09:41:47.247Z,9.44
2023-04-25T09:44:16.864Z,9.48
2023-04-25T09:46:54.913Z,9.46
2023-04-25T09:49:25.015Z,9.34
2023-04-25T09:51:59.371Z,9.25
2023-04-25T09:54:29.302Z,9.28
2023-04-25T09:56:58.780Z,9.20
2023-04-25T09:59:29.670Z,9.18
2023-04-25T10:02:01.527Z,9.24
2023-04-25T10:04:37.104Z,9.34
2023-04-25T10:07:11.681Z,9.44
2023-04-25T10:09:43.298Z,9.44
2023-04-25T10:12:13.782Z,9.38
2023-04-25T10:14:43.829Z,9.35
2023-04-25T10:17:16.123Z,9.40
2023-04-25T10:19:46.402Z,9.44
2023-04-25T10:22:26.630Z,9.50
2023-04-25T10:24:58.250Z,9.60
2023-04-25T10:27:30.463Z,9.70
2023-04-25T10:30:11.655Z,9.69
2023-04-25T10:32:45.055Z,9.75
2023-04-25T10:35:18.704Z,9.81
2023-04-25T10:38:06.478Z,9.78
2023-04-25T10:40:36.572Z,9.77
2023-04-25T10:43:40.954Z,9.83
2023-04-25T10:46:21.569Z,9.98
2023-04-25T10:48:55.123Z,10.03
2023-04-25T10:51:26.980Z,10.02
2023-04-25T10:54:03.021Z,10.01
2023-04-25T10:56:33.922Z,10.06
2023-04-25T10:59:12.070Z,10.00
2023-04-25T11:01:43.995Z,10.00
2023-04-25T11:04:26.845Z,10.12
2023-04-25T11:07:25.753Z,10.19
2023-04-25T11:09:56.401Z,10.26
2023-04-25T11:12:28.078Z,10.23
2023-04-25T11:15:03.849Z,10.36
2023-04-25T11:17:34.738Z,10.28
2023-04-25T11:20:12.802Z,10.33
2023-04-25T11:22:43.348Z,10.30
2023-04-25T11:25:15.361Z,10.37
2023-04-25T11:27:53.694Z,10.31
2023-04-25T11:30:25.941Z,10.33
2023-04-25T11:32:55.886Z,10.37
2023-04-25T11:35:27.799Z,10.42
2023-04-25T11:37:57.909Z,10.43
2023-04-25T11:40:27.213Z,10.44
2023-04-25T11:42:57.115Z,10.51
2023-04-25T11:45:27.842Z,10.52
2023-04-25T11:47:57.392Z,10.55
2023-04-25T11:50:31.277Z,10.56
2023-04-25T11:53:01.921Z,10.63
2023-04-25T11:55:34.103Z,10.67
2023-04-25T11:58:04.589Z,10.66
2023-04-25T12:00:34.965Z,10.68
2023-04-25T12:03:04.664Z,10.64
2023-04-25T12:05:36.051Z,10.71
2023-04-25T12:08:15.973Z,10.70
2023-04-25T12:10:48.269Z,10.70
2023-04-25T12:13:25.681Z,10.73
2023-04-25T12:15:56.909Z,10.78
2023-04-25T12:18:29.129Z,10.72
2023-04-25T12:21:01.626Z,10.75
2023-04-25T12:23:31.992Z,10.69
2023-04-25T12:26:03.899Z,10.63
2023-04-25T12:28:36.026Z,10.59
2023-04-25T12:31:08.715Z,10.70
2023-04-25T12:33:40.952Z,10.72
2023-04-25T12:36:14.698Z,10.78
2023-04-25T12:38:44.648Z,10.80
2023-04-25T12:41:15.114Z,10.77
2023-04-25T12:43:44.572Z,10.79
2023-04-25T12:46:13.608Z,10.82
2023-04-25T12:48:45.267Z,10.81
2023-04-25T12:51:16.951Z,10.92
2023-04-25T12:53:45.875Z,10.94
2023-04-25T12:56:15.710Z,10.91
2023-04-25T12:58:45.917Z,11.00
2023-04-25T13:01:15.548Z,11.00
2023-04-25T13:03:44.712Z,11.01
2023-04-25T13:06:16.409Z,11.06
2023-04-25T13:08:45.937Z,11.02
2023-04-25T13:11:16.297Z,11.12
2023-04-25T13:13:47.273Z,11.17
2023-04-25T13:16:16.363Z,11.07
2023-04-25T13:18:46.033Z,11.09
2023-04-25T13:21:16.756Z,11.15
2023-04-25T13:23:48.282Z,11.20
2023-04-25T13:26:17.617Z,11.21
2023-04-25T13:28:47.394Z,11.22
2023-04-25T13:31:17.930Z,11.18
2023-04-25T13:33:48.767Z,11.20
2023-04-25T13:36:20.996Z,11.25
2023-04-25T13:38:51.067Z,11.21
2023-04-25T13:41:20.518Z,11.15
2023-04-25T13:43:50.400Z,11.13
2023-04-25T13:46:40.792Z,11.03
2023-04-25T13:49:12.718Z,11.12
2023-04-25T13:51:44.292Z,11.17
2023-04-25T13:54:13.564Z,11.15
2023-04-25T13:56:43.851Z,11.18
2023-04-25T13:59:13.415Z,11.13
2023-04-25T14:01:43.478Z,11.18
2023-04-25T14:04:13.556Z,11.13
2023-04-25T14:06:44.037Z,11.09
2023-04-25T14:09:14.207Z,11.06
2023-04-25T14:11:44.043Z,11.08
2023-04-25T14:14:14.513Z,11.05
2023-04-25T14:16:43.431Z,11.08
2023-04-25T14:19:12.459Z,11.11
2023-04-25T14:21:45.237Z,11.07
2023-04-25T14:24:15.642Z,11.27
2023-04-25T14:26:46.666Z,11.38
2023-04-25T14:29:16.543Z,11.52
2023-04-25T14:31:46.226Z,11.59
2023-04-25T14:34:15.858Z,11.67
2023-04-25T14:36:46.711Z,11.74
2023-04-25T14:39:16.734Z,11.77
2023-04-25T14:41:46.301Z,11.89
2023-04-25T14:44:16.454Z,11.95
2023-04-25T14:46:44.903Z,11.95
2023-04-25T14:49:14.882Z,11.88
2023-04-25T14:51:45.779Z,11.81
2023-04-25T14:54:15.974Z,11.63
2023-04-25T14:56:46.481Z,11.66
2023-04-25T14:59:16.137Z,11.70
2023-04-25T15:01:47.379Z,11.72
2023-04-25T15:04:18.391Z,11.61
2023-04-25T15:06:51.070Z,11.55
2023-04-25T15:09:20.170Z,11.55
2023-04-25T15:11:50.139Z,11.55
2023-04-25T15:14:19.767Z,11.59
2023-04-25T15:16:49.709Z,11.54
2023-04-25T15:19:18.149Z,11.61
2023-04-25T15:21:49.102Z,11.69
2023-04-25T15:24:19.108Z,11.79
2023-04-25T15:26:49.539Z,11.77
2023-04-25T15:29:19.358Z,11.76
2023-04-25T15:31:49.316Z,11.80
2023-04-25T15:34:19.384Z,11.74
2023-04-25T15:36:50.607Z,11.80
2023-04-25T15:39:21.652Z,11.84
2023-04-25T15:41:51.036Z,11.75
2023-04-25T15:44:19.930Z,11.76
2023-04-25T15:46:48.843Z,11.70
2023-04-25T15:49:20.160Z,11.65
2023-04-25T15:51:51.521Z,11.71
2023-04-25T15:54:21.111Z,11.78
2023-04-25T15:56:49.956Z,11.75
2023-04-25T15:59:21.013Z,11.74
2023-04-25T16:01:50.588Z,11.79
2023-04-25T16:04:20.988Z,11.73
2023-04-25T16:06:51.409Z,11.73
2023-04-25T16:09:20.349Z,11.78
2023-04-25T16:11:49.670Z,11.79
2023-04-25T16:14:19.727Z,11.75
2023-04-25T16:16:49.688Z,11.65
2023-04-25T16:19:18.271Z,11.72
2023-04-25T16:21:47.844Z,11.74
2023-04-25T16:24:18.170Z,11.70
2023-04-25T16:26:47.498Z,11.76
2023-04-25T16:29:18.011Z,11.70
2023-04-25T16:31:50.702Z,11.68
2023-04-25T16:34:20.663Z,11.74
2023-04-25T16:36:50.253Z,11.68
2023-04-25T16:39:21.929Z,11.68
2023-04-25T16:41:51.574Z,11.69
2023-04-25T16:44:22.331Z,11.66
2023-04-25T16:46:51.891Z,11.72
2023-04-25T16:49:22.975Z,11.72
2023-04-25T16:52:04.032Z,11.65
2023-04-25T16:54:37.453Z,11.66
2023-04-25T16:57:12.233Z,11.68
2023-04-25T16:59:42.823Z,11.66
2023-04-25T17:02:15.601Z,11.65
2023-04-25T17:04:45.602Z,11.56
2023-04-25T17:07:16.057Z,11.54
2023-04-25T17:09:49.252Z,11.52
2023-04-25T17:12:20.170Z,11.50
2023-04-25T17:14:51.243Z,11.52
2023-04-25T17:17:22.010Z,11.41
2023-04-25T17:19:51.044Z,11.39
2023-04-25T17:22:20.556Z,11.28
2023-04-25T17:24:51.529Z,11.29
2023-04-25T17:27:21.058Z,11.30
2023-04-25T17:29:51.668Z,11.29
2023-04-25T17:32:22.684Z,11.23
2023-04-25T17:34:52.291Z,11.23
2023-04-25T17:37:23.152Z,11.16
2023-04-25T17:39:54.253Z,11.19
2023-04-25T17:42:24.445Z,11.18
2023-04-25T17:44:55.587Z,11.14
2023-04-25T17:47:26.260Z,11.09
2023-04-25T17:49:56.584Z,11.06
2023-04-25T17:52:27.008Z,11.04
2023-04-25T17:54:57.422Z,10.95
2023-04-25T17:57:27.004Z,10.89
2023-04-25T17:59:57.904Z,10.86
2023-04-25T18:02:27.770Z,10.78
2023-04-25T18:04:58.343Z,10.80
2023-04-25T18:07:27.975Z,10.78
2023-04-25T18:09:59.313Z,10.77
2023-04-25T18:12:29.657Z,10.71
2023-04-25T18:14:58.858Z,10.69
2023-04-25T18:17:28.626Z,10.64
2023-04-25T18:19:58.997Z,10.65
2023-04-25T18:22:28.753Z,10.63
2023-04-25T18:24:59.734Z,10.65
2023-04-25T18:27:30.936Z,10.53
2023-04-25T18:29:59.401Z,10.49
2023-04-25T18:32:30.424Z,10.47
2023-04-25T18:34:59.942Z,10.44
2023-04-25T18:37:29.408Z,10.37
2023-04-25T18:40:06.091Z,10.30
2023-04-25T18:42:34.720Z,10.23
2023-04-25T18:45:04.756Z,10.19
2023-04-25T18:47:35.343Z,10.10
2023-04-25T18:50:07.427Z,10.01
2023-04-25T18:52:37.863Z,9.95
2023-04-25T18:55:09.946Z,9.73
2023-04-25T18:57:40.279Z,9.72
2023-04-25T19:00:11.887Z,9.72
2023-04-25T19:02:42.673Z,9.70
2023-04-25T19:05:12.280Z,9.68
2023-04-25T19:07:41.487Z,9.56
2023-04-25T19:10:14.761Z,9.49
2023-04-25T19:12:44.175Z,9.47
2023-04-25T19:15:13.802Z,9.44
2023-04-25T19:17:44.411Z,9.27
2023-04-25T19:20:14.518Z,9.23
2023-04-25T19:22:44.532Z,9.25
2023-04-25T19:25:16.550Z,9.13
2023-04-25T19:27:45.668Z,9.16
2023-04-25T19:30:15.228Z,9.09
2023-04-25T19:32:45.583Z,8.96
2023-04-25T19:35:14.353Z,9.00
2023-04-25T19:37:46.767Z,8.97
2023-04-25T19:40:22.532Z,8.96
2023-04-25T19:42:51.939Z,8.93
2023-04-25T19:45:22.795Z,8.91
2023-04-25T19:47:52.011Z,8.83
2023-04-25T19:50:21.766Z,8.81
2023-04-25T19:52:52.096Z,8.79
2023-04-25T19:55:23.294Z,8.80
2023-04-25T19:57:53.177Z,8.75
2023-04-25T20:00:22.986Z,8.71
2023-04-25T20:02:52.452Z,8.71
2023-04-25T20:05:24.174Z,8.69
2023-04-25T20:07:53.999Z,8.64
2023-04-25T20:10:25.164Z,8.62
2023-04-25T20:12:54.709Z,8.58
2023-04-25T20:15:25.716Z,8.55
2023-04-25T20:17:54.342Z,8.57
2023-04-25T20:20:25.056Z,8.48
2023-04-25T20:22:55.609Z,8.43
2023-04-25T20:25:27.368Z,8.37
2023-04-25T20:27:58.306Z,8.38
2023-04-25T20:30:27.966Z,8.33
2023-04-25T20:32:58.235Z,8.28
2023-04-25T20:35:28.068Z,8.26
2023-04-25T20:37:58.588Z,8.26
2023-04-25T20:40:30.978Z,8.20
2023-04-25T20:43:00.042Z,8.12
2023-04-25T20:45:32.877Z,8.06
2023-04-25T20:48:02.739Z,7.96
2023-04-25T20:50:32.973Z,7.97
2023-04-25T20:53:02.197Z,7.92
2023-04-25T20:55:33.617Z,7.88
2023-04-25T20:58:23.664Z,7.83
2023-04-25T21:00:53.818Z,7.81
2023-04-25T21:03:23.885Z,7.75
2023-04-25T21:05:54.066Z,7.73
2023-04-25T21:08:23.208Z,7.56
2023-04-25T21:10:54.157Z,7.57
2023-04-25T21:13:24.204Z,7.51
2023-04-25T21:15:53.243Z,7.46
2023-04-25T21:18:22.444Z,7.43
2023-04-25T21:20:51.394Z,7.41
2023-04-25T21:23:21.442Z,7.33
2023-04-25T21:25:54.255Z,7.22
2023-04-25T21:28:23.759Z,7.17
2023-04-25T21:30:53.351Z,7.13
2023-04-25T21:33:23.937Z,7.13
2023-04-25T21:35:54.253Z,7.07
2023-04-25T21:38:24.337Z,6.98
2023-04-25T21:40:55.967Z,6.98
2023-04-25T21:43:25.571Z,6.88
2023-04-25T21:46:11.497Z,6.74
2023-04-25T21:48:45.232Z,6.77
2023-04-25T21:51:14.213Z,6.73
2023-04-25T21:53:43.638Z,6.66
2023-04-25T21:56:14.406Z,6.58
2023-04-25T21:58:44.518Z,6.62
2023-04-25T22:01:16.323Z,6.54
2023-04-25T22:03:45.640Z,6.49
2023-04-25T22:06:16.298Z,6.47
2023-04-25T22:08:46.455Z,6.44
2023-04-25T22:11:18.080Z,6.37
2023-04-25T22:13:47.217Z,6.30
2023-04-25T22:16:17.129Z,6.24
2023-04-25T22:18:46.642Z,6.14
2023-04-25T22:21:16.075Z,6.13
2023-04-25T22:23:46.730Z,6.06
2023-04-25T22:26:17.504Z,6.11
2023-04-25T22:28:46.963Z,6.05
2023-04-25T22:31:17.803Z,5.97
2023-04-25T22:33:49.362Z,5.91
2023-04-25T22:36:19.696Z,5.90
2023-04-25T22:38:48.602Z,5.86
2023-04-25T22:41:22.730Z,5.83
2023-04-25T22:43:53.502Z,5.80
2023-04-25T22:46:23.907Z,5.83
2023-04-25T22:48:53.133Z,5.76
2023-04-25T22:51:22.198Z,5.76
2023-04-25T22:53:51.770Z,5.78
2023-04-25T22:56:22.973Z,5.60
2023-04-25T22:58:52.620Z,5.57
2023-04-25T23:01:22.782Z,5.54
2023-04-25T23:03:52.977Z,5.48
2023-04-25T23:06:22.876Z,5.50
2023-04-25T23:08:51.520Z,5.47
2023-04-25T23:11:23.887Z,5.47
2023-04-25T23:13:54.129Z,5.38
2023-04-25T23:16:23.566Z,5.36
2023-04-25T23:18:53.448Z,5.30
2023-04-25T23:21:22.650Z,5.23
2023-04-25T23:23:51.740Z,5.14
2023-04-25T23:26:24.163Z,5.12
2023-04-25T23:28:54.984Z,5.05
2023-04-25T23:31:24.213Z,5.08
2023-04-25T23:33:55.068Z,5.07
2023-04-25T23:36:25.231Z,5.03
2023-04-25T23:38:56.496Z,5.04
2023-04-25T23:41:27.282Z,5.00
2023-04-25T23:43:56.734Z,4.93
2023-04-25T23:46:28.953Z,4.94
2023-04-25T23:48:59.452Z,4.90
2023-04-25T23:51:29.988Z,4.82
2023-04-25T23:54:01.079Z,4.77
2023-04-25T23:56:33.000Z,4.76
2023-04-25T23:59:02.936Z,4.70
